KSEM/SEM METAR and TAF weather

Enter ICAO airport designator
Station Type Date Time Source
KSEM METAR 2020/06/30 23:35 UTC NOAA

KSEM 302335Z AUTO 07006G12KT 8SM VCTS DZ FEW037 FEW049 30/21 A2994 RMK AO2 LTG DSNT NE-S


Station Type Date Time Source
KSEM Decoded METAR 2020/06/30 23:35 UTC NOAA

Craig Field / Selma, AL, United States (KSEM) 32-21N 086-59W
Jun 30, 2020 - 07:35 PM EDT / 2020.06.30 2335 UTC
Wind: from the ENE (070 degrees) at 7 MPH (6 KT) gusting to 14 MPH (12 KT):0
Visibility: 8 mile(s):0
Sky conditions: mostly clear
Weather: thunder in the vicinity; drizzle; Lightning observed
Temperature: 86 F (30 C)
Dew Point: 69 F (21 C)
Relative Humidity: 58%
Pressure (altimeter): 29.94 in. Hg (1013 hPa)
ob: KSEM 302335Z AUTO 07006G12KT 8SM VCTS DZ FEW037 FEW049 30/21 A2994 RMK AO2 LTG DSNT NE-S
cycle: 23

Station Type Date Time Source
KSEM TAF UTC NOAA

Error!

Example: see airport list